Terminal Aerodrome Forecast
Issued by NWS

Home | Current Version | Previous Version | Text Only | Print | Product List | Glossary On
Versions: 1 2 3 4 5 6 7 8 9 10 11 12 13 14 15 16 17 18 19 20
000
FTUS43 KLSX 021400 AAB
TAFUIN
TAF AMD
KUIN 021424Z 0214/0312 18012KT 5SM -TSRA BR OVC060CB
      TEMPO 0214/0218 2SM +TSRA BR OVC025CB
     FM021900 19010KT 6SM -RA BR VCTS OVC025CB
     FM030200 25007KT 5SM BR BKN015
     FM030800 33012G22KT 3SM -RA BR OVC007=

USA.gov is the U.S. government's official web portal to all federal, state and local government web resources and services.